createdAt,value
2017-05-27T00:01:03.790Z,8.26
2017-05-27T00:03:32.864Z,9.76
2017-05-27T00:06:01.972Z,7.52
2017-05-27T00:08:31.083Z,8.20
2017-05-27T00:11:00.291Z,9.32
2017-05-27T00:13:29.367Z,9.30
2017-05-27T00:15:58.470Z,8.08
2017-05-27T00:18:27.674Z,8.92
2017-05-27T00:20:56.911Z,8.94
2017-05-27T00:23:26.017Z,6.96
2017-05-27T00:25:55.126Z,7.32
2017-05-27T00:28:24.219Z,8.42
2017-05-27T00:30:53.423Z,8.48
2017-05-27T00:33:22.506Z,8.08
2017-05-27T00:35:51.587Z,8.52
2017-05-27T00:38:21.090Z,8.40
2017-05-27T00:40:50.151Z,8.24
2017-05-27T00:43:19.281Z,7.90
2017-05-27T00:45:48.491Z,8.26
2017-05-27T00:48:17.559Z,8.36
2017-05-27T00:50:46.639Z,8.66
2017-05-27T00:53:15.739Z,8.06
2017-05-27T00:55:44.798Z,8.44
2017-05-27T00:58:13.882Z,9.88
2017-05-27T01:00:42.960Z,8.96
2017-05-27T01:03:12.175Z,8.86
2017-05-27T01:05:41.259Z,9.40
2017-05-27T01:08:10.332Z,8.96
2017-05-27T01:10:39.539Z,8.74
2017-05-27T01:13:08.603Z,8.78
2017-05-27T01:15:37.678Z,9.12
2017-05-27T01:18:06.128Z,11.16
2017-05-27T01:20:35.187Z,9.02
2017-05-27T01:23:04.246Z,10.68
2017-05-27T01:25:33.378Z,9.62
2017-05-27T01:28:02.482Z,10.92
2017-05-27T01:30:31.594Z,10.08
2017-05-27T01:33:00.756Z,10.40
2017-05-27T01:35:29.944Z,9.76
2017-05-27T01:37:59.013Z,9.96
2017-05-27T01:40:28.087Z,9.96
2017-05-27T01:42:57.182Z,8.44
2017-05-27T01:45:26.283Z,10.78
2017-05-27T01:47:55.627Z,10.46
2017-05-27T01:50:24.680Z,9.80
2017-05-27T01:52:53.738Z,11.74
2017-05-27T01:55:22.975Z,10.70
2017-05-27T01:57:52.049Z,11.46
2017-05-27T02:00:21.123Z,12.32
2017-05-27T02:02:50.604Z,11.84
2017-05-27T02:05:19.679Z,10.92
2017-05-27T02:07:48.771Z,11.18
2017-05-27T02:10:17.863Z,10.30
2017-05-27T02:12:46.935Z,10.58
2017-05-27T02:15:16.146Z,12.24
2017-05-27T02:17:45.220Z,10.62
2017-05-27T02:20:14.476Z,10.88
2017-05-27T02:22:43.559Z,10.28
2017-05-27T02:25:12.634Z,10.68
2017-05-27T02:27:41.739Z,10.76
2017-05-27T02:30:10.816Z,9.12
2017-05-27T02:32:40.255Z,10.46
2017-05-27T02:35:09.335Z,11.94
2017-05-27T02:37:38.418Z,10.80
2017-05-27T02:40:06.767Z,12.06
2017-05-27T02:42:35.880Z,11.78
2017-05-27T02:45:04.975Z,10.98
2017-05-27T02:47:34.081Z,11.86
2017-05-27T02:50:03.311Z,10.86
2017-05-27T02:52:32.419Z,12.02
2017-05-27T02:55:01.521Z,12.62
2017-05-27T02:57:30.635Z,11.52
2017-05-27T02:59:59.745Z,13.22
2017-05-27T03:02:28.859Z,12.02
2017-05-27T03:04:57.943Z,11.52
2017-05-27T03:07:27.176Z,11.02
2017-05-27T03:09:56.280Z,10.72
2017-05-27T03:12:25.374Z,12.62
2017-05-27T03:14:54.495Z,12.66
2017-05-27T03:17:23.568Z,11.74
2017-05-27T03:19:52.842Z,13.78
2017-05-27T03:22:21.923Z,11.28
2017-05-27T03:24:51.003Z,11.86
2017-05-27T03:27:20.100Z,13.46
2017-05-27T03:29:49.178Z,12.20
2017-05-27T03:32:18.395Z,11.58
2017-05-27T03:34:47.499Z,19.24
2017-05-27T03:37:16.605Z,23.22
2017-05-27T03:39:46.230Z,12.62
2017-05-27T03:42:15.311Z,13.14
2017-05-27T03:44:44.527Z,10.48
2017-05-27T03:47:13.618Z,23.10
2017-05-27T03:49:42.713Z,11.96
2017-05-27T03:52:11.830Z,10.84
2017-05-27T03:54:40.915Z,11.84
2017-05-27T03:57:10.119Z,12.62
2017-05-27T03:59:39.187Z,10.08
2017-05-27T04:02:08.264Z,10.84
2017-05-27T04:04:37.782Z,11.80
2017-05-27T04:07:06.889Z,11.30
2017-05-27T04:09:35.963Z,11.72
2017-05-27T04:12:05.271Z,10.18
2017-05-27T04:14:34.363Z,11.18
2017-05-27T04:17:03.427Z,10.20
2017-05-27T04:19:32.517Z,10.50
2017-05-27T04:22:01.598Z,11.44
2017-05-27T04:24:31.663Z,10.66
2017-05-27T04:27:00.739Z,10.16
2017-05-27T04:29:29.807Z,9.14
2017-05-27T04:31:59.146Z,9.96
2017-05-27T04:34:28.230Z,11.70
2017-05-27T04:36:57.299Z,9.88
2017-05-27T04:39:26.424Z,9.94
2017-05-27T04:41:55.495Z,11.04
2017-05-27T04:44:24.603Z,13.78
2017-05-27T04:46:53.663Z,10.24
2017-05-27T04:49:22.867Z,10.40
2017-05-27T04:51:51.983Z,10.96
2017-05-27T04:54:21.063Z,10.68
2017-05-27T04:56:50.167Z,11.58
2017-05-27T04:59:19.245Z,12.40
2017-05-27T05:01:48.443Z,11.82
2017-05-27T05:04:17.531Z,10.98
2017-05-27T05:06:46.619Z,11.84
2017-05-27T05:09:15.715Z,12.24
2017-05-27T05:11:44.793Z,12.34
2017-05-27T05:14:13.987Z,11.02
2017-05-27T05:16:43.059Z,11.84
2017-05-27T05:19:12.183Z,10.94
2017-05-27T05:21:41.460Z,10.58
2017-05-27T05:24:10.542Z,11.02
2017-05-27T05:26:39.627Z,11.74
2017-05-27T05:29:08.839Z,12.14
2017-05-27T05:31:37.912Z,11.20
2017-05-27T05:34:07.007Z,10.92
2017-05-27T05:36:36.115Z,11.56
2017-05-27T05:39:05.219Z,10.96
2017-05-27T05:41:34.591Z,11.44
2017-05-27T05:44:03.666Z,10.96
2017-05-27T05:46:32.742Z,11.22
2017-05-27T05:49:02.651Z,9.78
2017-05-27T05:51:31.748Z,10.90
2017-05-27T05:54:00.852Z,9.78
2017-05-27T05:56:29.935Z,11.08
2017-05-27T05:58:59.171Z,11.42
2017-05-27T06:01:28.262Z,11.36
2017-05-27T06:03:57.503Z,11.58
2017-05-27T06:06:26.903Z,12.36
2017-05-27T06:08:55.983Z,12.54
2017-05-27T06:11:25.078Z,11.66
2017-05-27T06:13:54.283Z,12.56
2017-05-27T06:16:23.380Z,13.00
2017-05-27T06:18:52.457Z,11.00
2017-05-27T06:21:21.671Z,11.80
2017-05-27T06:23:50.750Z,11.32
2017-05-27T06:26:19.832Z,11.72
2017-05-27T06:28:48.935Z,10.70
2017-05-27T06:31:18.008Z,11.76
2017-05-27T06:33:47.113Z,11.72
2017-05-27T06:36:16.186Z,12.78
2017-05-27T06:38:45.450Z,11.82
2017-05-27T06:41:14.523Z,12.98
2017-05-27T06:43:43.579Z,11.14
2017-05-27T06:46:12.702Z,11.10
2017-05-27T06:48:41.792Z,11.84
2017-05-27T06:51:11.002Z,11.82
2017-05-27T06:53:40.086Z,10.56
2017-05-27T06:56:09.192Z,10.94
2017-05-27T06:58:38.300Z,11.62
2017-05-27T07:01:07.386Z,10.24
2017-05-27T07:03:36.492Z,11.58
2017-05-27T07:06:05.607Z,9.66
2017-05-27T07:08:35.103Z,10.04
2017-05-27T07:11:04.183Z,11.14
2017-05-27T07:13:33.259Z,11.38
2017-05-27T07:16:02.467Z,10.04
2017-05-27T07:18:31.556Z,11.68
2017-05-27T07:21:00.628Z,9.12
2017-05-27T07:23:29.746Z,10.82
2017-05-27T07:25:58.828Z,12.02
2017-05-27T07:28:28.027Z,11.42
2017-05-27T07:30:57.103Z,9.80
2017-05-27T07:33:26.177Z,10.20
2017-05-27T07:35:55.298Z,10.38
2017-05-27T07:38:24.383Z,9.32
2017-05-27T07:40:53.631Z,9.28
2017-05-27T07:43:22.682Z,9.12
2017-05-27T07:45:51.766Z,10.72
2017-05-27T07:48:20.975Z,8.06
2017-05-27T07:50:50.071Z,8.08
2017-05-27T07:53:19.139Z,9.04
2017-05-27T07:55:48.267Z,7.50
2017-05-27T07:58:17.358Z,8.84
2017-05-27T08:00:46.698Z,9.62
2017-05-27T08:03:15.771Z,8.40
2017-05-27T08:05:44.830Z,7.64
2017-05-27T08:08:13.919Z,8.64
2017-05-27T08:10:43.043Z,10.02
2017-05-27T08:13:12.159Z,11.34
2017-05-27T08:15:41.246Z,12.42
2017-05-27T08:18:10.668Z,10.16
2017-05-27T08:20:39.782Z,8.14
2017-05-27T08:23:08.899Z,10.94
2017-05-27T08:25:38.014Z,9.34
2017-05-27T08:28:07.082Z,9.46
2017-05-27T08:30:36.286Z,8.94
2017-05-27T08:33:10.315Z,9.20
2017-05-27T08:35:39.515Z,9.96
2017-05-27T08:38:08.718Z,11.20
2017-05-27T08:40:37.803Z,9.56
2017-05-27T08:43:06.875Z,9.36
2017-05-27T08:45:35.987Z,9.22
2017-05-27T08:48:05.226Z,10.06
2017-05-27T08:50:34.326Z,10.10
2017-05-27T08:53:03.461Z,10.94
2017-05-27T08:55:32.663Z,9.86
2017-05-27T08:58:01.732Z,10.74
2017-05-27T09:00:31.227Z,12.94
2017-05-27T09:03:00.321Z,10.20
2017-05-27T09:05:29.407Z,11.64
2017-05-27T09:07:57.751Z,12.30
2017-05-27T09:10:26.882Z,12.58
2017-05-27T09:12:56.098Z,12.14
2017-05-27T09:15:25.219Z,12.04
2017-05-27T09:17:54.319Z,9.88
2017-05-27T09:20:23.571Z,10.86
2017-05-27T09:22:52.651Z,10.20
2017-05-27T09:25:20.979Z,10.16
2017-05-27T09:27:50.204Z,8.88
2017-05-27T09:30:19.310Z,9.70
2017-05-27T09:32:48.406Z,9.06
2017-05-27T09:35:17.531Z,8.38
2017-05-27T09:37:46.657Z,8.24
2017-05-27T09:40:15.883Z,8.92
2017-05-27T09:42:44.224Z,5.98
2017-05-27T09:45:13.318Z,7.20
2017-05-27T09:47:41.687Z,7.10
2017-05-27T09:50:10.792Z,7.42
2017-05-27T09:52:39.915Z,5.80
2017-05-27T09:55:09.027Z,6.18
2017-05-27T09:57:38.251Z,7.44
2017-05-27T10:00:07.369Z,7.42
2017-05-27T10:02:36.454Z,6.32
2017-05-27T10:05:05.857Z,6.68
2017-05-27T10:07:34.949Z,6.62
2017-05-27T10:10:04.070Z,7.02
2017-05-27T10:12:33.342Z,6.62
2017-05-27T10:15:02.422Z,10.32
2017-05-27T10:17:31.526Z,8.42
2017-05-27T10:20:00.627Z,7.86
2017-05-27T10:22:29.724Z,7.90
2017-05-27T10:24:59.212Z,8.42
2017-05-27T10:27:28.307Z,7.94
2017-05-27T10:29:57.380Z,7.70
2017-05-27T10:32:26.500Z,6.72
2017-05-27T10:34:55.608Z,6.66
2017-05-27T10:37:24.810Z,7.66
2017-05-27T10:39:53.910Z,9.44
2017-05-27T10:42:23.011Z,8.74
2017-05-27T10:44:52.261Z,7.64
2017-05-27T10:47:21.372Z,7.10
2017-05-27T10:49:50.444Z,6.32
2017-05-27T10:52:19.977Z,6.92
2017-05-27T10:54:49.061Z,6.62
2017-05-27T10:57:18.148Z,7.18
2017-05-27T10:59:47.261Z,8.58
2017-05-27T11:02:16.365Z,7.42
2017-05-27T11:04:45.574Z,9.06
2017-05-27T11:07:14.670Z,7.04
2017-05-27T11:09:43.747Z,8.02
2017-05-27T11:12:12.845Z,9.20
2017-05-27T11:14:41.943Z,10.08
2017-05-27T11:17:11.339Z,8.72
2017-05-27T11:19:40.447Z,8.22
2017-05-27T11:22:09.540Z,6.88
2017-05-27T11:24:38.650Z,8.64
2017-05-27T11:27:07.751Z,8.60
2017-05-27T11:29:36.856Z,6.60
2017-05-27T11:32:05.936Z,8.42
2017-05-27T11:34:35.200Z,6.42
2017-05-27T11:37:04.272Z,8.90
2017-05-27T11:39:33.375Z,8.42
2017-05-27T11:42:02.592Z,6.70
2017-05-27T11:44:31.673Z,6.00
2017-05-27T11:47:00.765Z,11.44
2017-05-27T11:49:30.011Z,11.96
2017-05-27T11:51:59.126Z,9.16
2017-05-27T11:54:28.201Z,8.66
2017-05-27T11:56:57.434Z,7.50
2017-05-27T11:59:26.732Z,8.54
2017-05-27T12:01:55.958Z,7.70
2017-05-27T12:04:25.087Z,8.12
2017-05-27T12:06:54.170Z,7.76
2017-05-27T12:09:23.303Z,8.28
2017-05-27T12:11:52.395Z,7.56
2017-05-27T12:14:21.626Z,8.50
2017-05-27T12:16:50.727Z,8.66
2017-05-27T12:19:19.805Z,8.78
2017-05-27T12:21:49.031Z,9.00
2017-05-27T12:24:18.138Z,7.72
2017-05-27T12:26:47.231Z,6.70
2017-05-27T12:29:16.468Z,7.86
2017-05-27T12:31:45.557Z,8.82
2017-05-27T12:34:14.659Z,9.28
2017-05-27T12:36:43.883Z,8.56
2017-05-27T12:39:12.999Z,9.16
2017-05-27T12:41:42.106Z,10.56
2017-05-27T12:44:11.210Z,7.30
2017-05-27T12:46:40.294Z,8.28
2017-05-27T12:49:09.526Z,10.94
2017-05-27T12:51:38.634Z,10.44
2017-05-27T12:54:07.742Z,9.50
2017-05-27T12:56:36.873Z,9.70
2017-05-27T12:59:05.948Z,6.90
2017-05-27T13:01:35.166Z,8.08
2017-05-27T13:04:04.379Z,7.58
2017-05-27T13:06:33.480Z,8.14
2017-05-27T13:09:02.591Z,13.84
2017-05-27T13:11:31.707Z,8.08
2017-05-27T13:14:00.819Z,12.92
2017-05-27T13:16:29.933Z,10.24
2017-05-27T13:18:59.419Z,7.92
2017-05-27T13:21:28.547Z,11.72
2017-05-27T13:23:57.928Z,8.46
2017-05-27T13:26:27.174Z,10.68
2017-05-27T13:28:56.284Z,8.50
2017-05-27T13:31:25.406Z,7.72
2017-05-27T13:33:54.546Z,8.90
2017-05-27T13:36:23.638Z,6.58
2017-05-27T13:38:52.839Z,6.70
2017-05-27T13:41:21.912Z,7.56
2017-05-27T13:43:50.988Z,8.72
2017-05-27T13:46:20.499Z,7.64
2017-05-27T13:48:49.595Z,8.24
2017-05-27T13:51:18.710Z,9.36
2017-05-27T13:53:47.950Z,14.20
2017-05-27T13:56:17.065Z,8.88
2017-05-27T13:58:46.133Z,8.12
2017-05-27T14:01:15.291Z,8.74
2017-05-27T14:03:44.377Z,9.64
2017-05-27T14:06:13.617Z,7.96
2017-05-27T14:08:41.944Z,11.26
2017-05-27T14:11:11.079Z,10.32
2017-05-27T14:13:40.527Z,8.32
2017-05-27T14:16:09.604Z,8.50
2017-05-27T14:18:38.702Z,8.68
2017-05-27T14:21:07.811Z,9.40
2017-05-27T14:23:36.868Z,6.86
2017-05-27T14:26:06.043Z,8.10
2017-05-27T14:28:35.055Z,7.56
2017-05-27T14:31:04.279Z,8.20
2017-05-27T14:33:33.352Z,7.58
2017-05-27T14:36:01.677Z,8.52
2017-05-27T14:38:30.788Z,7.58
2017-05-27T14:40:59.889Z,7.04
2017-05-27T14:43:28.990Z,7.88
2017-05-27T14:45:57.307Z,7.96
2017-05-27T14:48:26.524Z,7.86
2017-05-27T14:50:55.607Z,6.18
2017-05-27T14:53:24.719Z,9.22
2017-05-27T14:55:53.863Z,9.42
2017-05-27T14:58:22.939Z,6.76
2017-05-27T15:00:52.166Z,14.10
2017-05-27T15:03:21.263Z,7.50
2017-05-27T15:05:50.330Z,7.40
2017-05-27T15:08:19.972Z,8.46
2017-05-27T15:10:49.096Z,7.06
2017-05-27T15:13:18.420Z,6.16
2017-05-27T15:15:47.499Z,6.28
2017-05-27T15:18:17.764Z,6.84
2017-05-27T15:20:46.879Z,5.74
2017-05-27T15:23:15.943Z,6.04
2017-05-27T15:25:45.161Z,9.06
2017-05-27T15:28:14.232Z,7.96
2017-05-27T15:30:43.405Z,8.12
2017-05-27T15:33:12.943Z,8.52
2017-05-27T15:35:42.051Z,8.56
2017-05-27T15:38:11.140Z,9.16
2017-05-27T15:40:40.263Z,17.58
2017-05-27T15:43:09.707Z,11.92
2017-05-27T15:45:38.998Z,11.06
2017-05-27T15:48:08.086Z,10.96
2017-05-27T15:50:37.196Z,11.20
2017-05-27T15:53:06.384Z,9.66
2017-05-27T15:55:35.470Z,9.68
2017-05-27T15:58:04.559Z,9.24
2017-05-27T16:00:33.642Z,10.50
2017-05-27T16:03:03.276Z,9.94
2017-05-27T16:05:32.444Z,10.82
2017-05-27T16:08:01.520Z,8.82
2017-05-27T16:10:30.627Z,9.22
2017-05-27T16:12:59.736Z,12.30
2017-05-27T16:15:29.211Z,12.16
2017-05-27T16:17:58.303Z,9.82
2017-05-27T16:20:27.408Z,9.86
2017-05-27T16:22:56.508Z,8.60
2017-05-27T16:25:25.585Z,7.26
2017-05-27T16:27:54.742Z,11.16
2017-05-27T16:30:23.853Z,12.20
2017-05-27T16:32:52.962Z,6.84
2017-05-27T16:35:22.051Z,8.98
2017-05-27T16:37:51.259Z,11.58
2017-05-27T16:40:20.356Z,13.16
2017-05-27T16:42:49.451Z,13.38
2017-05-27T16:45:18.578Z,11.94
2017-05-27T16:47:47.715Z,13.06
2017-05-27T16:50:16.935Z,10.90
2017-05-27T16:52:46.035Z,11.58
2017-05-27T16:55:15.128Z,16.06
2017-05-27T16:57:44.295Z,10.20
2017-05-27T17:00:13.369Z,7.50
2017-05-27T17:02:42.594Z,8.40
2017-05-27T17:05:11.685Z,9.80
2017-05-27T17:07:40.787Z,8.58
2017-05-27T17:10:10.039Z,8.42
2017-05-27T17:12:39.172Z,8.14
2017-05-27T17:15:08.283Z,7.82
2017-05-27T17:17:37.435Z,7.00
2017-05-27T17:20:06.537Z,7.94
2017-05-27T17:22:35.656Z,7.98
2017-05-27T17:25:04.767Z,10.90
2017-05-27T17:27:33.967Z,9.88
2017-05-27T17:30:03.078Z,10.60
2017-05-27T17:32:32.175Z,9.80
2017-05-27T17:35:01.307Z,11.52
2017-05-27T17:37:30.442Z,10.66
2017-05-27T17:39:59.669Z,12.86
2017-05-27T17:42:28.772Z,12.06
2017-05-27T17:44:57.892Z,7.50
2017-05-27T17:47:27.031Z,7.94
2017-05-27T17:49:56.117Z,9.36
2017-05-27T17:52:25.254Z,8.48
2017-05-27T17:54:54.403Z,6.44
2017-05-27T17:57:23.538Z,6.64
2017-05-27T17:59:52.657Z,6.78
2017-05-27T18:02:21.785Z,6.30
2017-05-27T18:04:50.923Z,6.92
2017-05-27T18:07:20.796Z,6.18
2017-05-27T18:09:49.901Z,9.04
2017-05-27T18:12:18.987Z,7.42
2017-05-27T18:14:48.179Z,6.46
2017-05-27T18:17:17.307Z,5.12
2017-05-27T18:19:46.415Z,6.72
2017-05-27T18:22:15.774Z,7.26
2017-05-27T18:24:44.852Z,5.82
2017-05-27T18:27:13.951Z,5.42
2017-05-27T18:29:43.053Z,6.76
2017-05-27T18:32:12.129Z,6.78
2017-05-27T18:34:41.344Z,5.08
2017-05-27T18:37:10.434Z,4.54
2017-05-27T18:39:39.519Z,7.88
2017-05-27T18:42:08.655Z,6.10
2017-05-27T18:44:37.728Z,8.08
2017-05-27T18:47:06.987Z,9.74
2017-05-27T18:49:36.064Z,6.30
2017-05-27T18:52:05.205Z,5.94
2017-05-27T18:54:34.309Z,7.32
2017-05-27T18:57:04.179Z,5.42
2017-05-27T18:59:34.329Z,6.58
2017-05-27T19:02:03.420Z,5.76
2017-05-27T19:04:32.539Z,6.54
2017-05-27T19:07:01.667Z,6.14
2017-05-27T19:09:30.772Z,6.68
2017-05-27T19:11:59.979Z,5.90
2017-05-27T19:14:29.097Z,5.80
2017-05-27T19:16:58.159Z,4.88
2017-05-27T19:19:27.294Z,4.66
2017-05-27T19:21:57.042Z,7.12
2017-05-27T19:24:26.239Z,9.76
2017-05-27T19:26:55.714Z,6.62
2017-05-27T19:29:25.021Z,8.20
2017-05-27T19:31:54.133Z,10.16
2017-05-27T19:34:23.669Z,10.86
2017-05-27T19:36:53.212Z,11.34
2017-05-27T19:39:22.380Z,10.54
2017-05-27T19:41:51.505Z,7.44
2017-05-27T19:44:20.918Z,6.76
2017-05-27T19:46:50.108Z,6.74
2017-05-27T19:49:19.272Z,5.14
2017-05-27T19:51:48.512Z,6.36
2017-05-27T19:54:17.601Z,6.60
2017-05-27T19:56:46.727Z,6.50
2017-05-27T19:59:15.161Z,6.48
2017-05-27T20:01:44.272Z,6.54
2017-05-27T20:04:13.376Z,7.04
2017-05-27T20:06:42.532Z,12.36
2017-05-27T20:09:11.614Z,7.06
2017-05-27T20:11:40.864Z,10.56
2017-05-27T20:14:09.956Z,6.72
2017-05-27T20:16:39.057Z,5.86
2017-05-27T20:19:08.293Z,5.22
2017-05-27T20:21:37.379Z,6.44
2017-05-27T20:24:06.475Z,7.00
2017-05-27T20:26:35.596Z,6.32
2017-05-27T20:29:04.667Z,8.08
2017-05-27T20:31:33.797Z,7.24
2017-05-27T20:34:02.897Z,8.26
2017-05-27T20:36:32.278Z,6.50
2017-05-27T20:39:01.347Z,7.48
2017-05-27T20:41:30.450Z,7.34
2017-05-27T20:43:59.553Z,6.54
2017-05-27T20:46:28.622Z,6.74
2017-05-27T20:48:58.079Z,7.06
2017-05-27T20:51:27.164Z,6.94
2017-05-27T20:53:56.236Z,6.68
2017-05-27T20:56:25.353Z,7.52
2017-05-27T20:58:54.465Z,6.70
2017-05-27T21:01:24.123Z,7.06
2017-05-27T21:03:53.234Z,6.12
2017-05-27T21:06:22.310Z,7.88
2017-05-27T21:08:51.450Z,6.04
2017-05-27T21:11:20.540Z,6.22
2017-05-27T21:13:49.625Z,6.02
2017-05-27T21:16:18.715Z,6.62
2017-05-27T21:18:48.142Z,7.34
2017-05-27T21:21:17.226Z,7.56
2017-05-27T21:23:46.284Z,6.18
2017-05-27T21:26:15.374Z,8.82
2017-05-27T21:28:44.446Z,9.68
2017-05-27T21:31:13.809Z,8.12
2017-05-27T21:33:42.880Z,8.38
2017-05-27T21:36:11.956Z,7.34
2017-05-27T21:38:41.424Z,6.52
2017-05-27T21:41:10.475Z,6.20
2017-05-27T21:43:39.705Z,6.34
2017-05-27T21:46:09.915Z,6.14
2017-05-27T21:48:39.159Z,5.72
2017-05-27T21:51:08.318Z,6.50
2017-05-27T21:53:37.743Z,8.10
2017-05-27T21:56:06.836Z,5.62
2017-05-27T21:58:36.126Z,6.84
2017-05-27T22:01:05.217Z,6.72
2017-05-27T22:03:34.289Z,6.64
2017-05-27T22:06:03.473Z,7.30
2017-05-27T22:08:32.523Z,7.80
2017-05-27T22:11:01.626Z,8.50
2017-05-27T22:13:30.701Z,6.16
2017-05-27T22:15:59.769Z,6.16
2017-05-27T22:18:28.968Z,5.10
2017-05-27T22:20:58.138Z,7.06
2017-05-27T22:23:27.221Z,7.22
2017-05-27T22:25:56.330Z,5.50
2017-05-27T22:28:25.408Z,5.86
2017-05-27T22:30:54.523Z,5.50
2017-05-27T22:33:23.587Z,6.66
2017-05-27T22:35:53.615Z,11.30
2017-05-27T22:38:23.629Z,7.64
2017-05-27T22:40:52.759Z,5.46
2017-05-27T22:43:21.951Z,4.14
2017-05-27T22:45:51.007Z,6.46
2017-05-27T22:48:20.071Z,8.16
2017-05-27T22:50:49.487Z,4.86
2017-05-27T22:53:18.559Z,5.18
2017-05-27T22:55:47.635Z,7.20
2017-05-27T22:58:16.724Z,7.24
2017-05-27T23:00:45.793Z,6.28
2017-05-27T23:03:14.227Z,7.60
2017-05-27T23:05:43.277Z,6.36
2017-05-27T23:08:12.328Z,7.12
2017-05-27T23:10:41.419Z,6.18
2017-05-27T23:13:10.488Z,6.98
2017-05-27T23:15:39.763Z,5.84
2017-05-27T23:18:08.851Z,6.10
2017-05-27T23:20:37.916Z,5.62
2017-05-27T23:23:06.998Z,7.60
2017-05-27T23:25:36.078Z,8.92
2017-05-27T23:28:05.166Z,7.32
2017-05-27T23:30:34.282Z,8.76
2017-05-27T23:33:03.478Z,7.32
2017-05-27T23:35:32.643Z,7.72
2017-05-27T23:38:01.708Z,8.92
2017-05-27T23:40:31.041Z,7.64
2017-05-27T23:43:00.111Z,7.80
2017-05-27T23:45:29.183Z,8.28
2017-05-27T23:47:58.269Z,8.18
2017-05-27T23:50:27.334Z,6.96
2017-05-27T23:52:56.524Z,6.30
2017-05-27T23:55:25.607Z,10.06
2017-05-27T23:57:54.700Z,5.60
